Terminal Aerodrome Forecast
Issued by NWS

Home | Current Version | Previous Version | Text Only | Print | Product List | Glossary On
Versions: 1 2 3 4 5 6 7 8 9 10 11 12 13 14 15 16 17 18
000
FTUS46 KSGX 181700
TAFSNA
TAF
KSNA 181732Z 1818/1918 VRB05KT P6SM SCT025 OVC035
     FM182000 21010KT P6SM SCT030 BKN120
     FM190200 25005KT P6SM SCT025 BKN035
     FM190700 VRB03KT P6SM BKN022=

USA.gov is the U.S. government's official web portal to all federal, state and local government web resources and services.